sensor_id;sensor_type;location;lat;lon;timestamp;temperature;humidity
66629;DHT22;53532;53.084;6.352;2022-09-02T00:01:04;14.10;99.90
66629;DHT22;53532;53.084;6.352;2022-09-02T00:03:35;14.00;99.90
66629;DHT22;53532;53.084;6.352;2022-09-02T00:06:02;14.00;99.90
66629;DHT22;53532;53.084;6.352;2022-09-02T00:08:29;14.00;99.90
66629;DHT22;53532;53.084;6.352;2022-09-02T00:10:57;14.00;99.90
66629;DHT22;53532;53.084;6.352;2022-09-02T00:13:23;13.90;99.90
66629;DHT22;53532;53.084;6.352;2022-09-02T00:15:49;13.90;99.90
66629;DHT22;53532;53.084;6.352;2022-09-02T00:18:16;13.90;99.90
66629;DHT22;53532;53.084;6.352;2022-09-02T00:20:45;13.80;99.90
66629;DHT22;53532;53.084;6.352;2022-09-02T00:23:13;13.90;99.90
66629;DHT22;53532;53.084;6.352;2022-09-02T00:25:40;13.80;99.90
66629;DHT22;53532;53.084;6.352;2022-09-02T00:28:06;13.80;99.90
66629;DHT22;53532;53.084;6.352;2022-09-02T00:30:32;13.80;99.90
66629;DHT22;53532;53.084;6.352;2022-09-02T00:32:59;13.70;99.90
66629;DHT22;53532;53.084;6.352;2022-09-02T00:35:24;13.70;99.90
66629;DHT22;53532;53.084;6.352;2022-09-02T00:37:50;13.70;99.90
66629;DHT22;53532;53.084;6.352;2022-09-02T00:40:18;13.70;99.90
66629;DHT22;53532;53.084;6.352;2022-09-02T00:42:44;13.60;99.90
66629;DHT22;53532;53.084;6.352;2022-09-02T00:45:10;13.60;99.90
66629;DHT22;53532;53.084;6.352;2022-09-02T00:47:36;13.60;99.90
66629;DHT22;53532;53.084;6.352;2022-09-02T00:50:05;13.50;99.90
66629;DHT22;53532;53.084;6.352;2022-09-02T00:52:34;13.50;99.90
66629;DHT22;53532;53.084;6.352;2022-09-02T00:55:05;13.50;99.90
66629;DHT22;53532;53.084;6.352;2022-09-02T00:57:37;13.40;99.90
66629;DHT22;53532;53.084;6.352;2022-09-02T01:00:08;13.40;99.90
66629;DHT22;53532;53.084;6.352;2022-09-02T01:02:37;13.40;99.90
66629;DHT22;53532;53.084;6.352;2022-09-02T01:05:06;13.30;99.90
66629;DHT22;53532;53.084;6.352;2022-09-02T01:07:34;13.30;99.90
66629;DHT22;53532;53.084;6.352;2022-09-02T01:10:04;13.30;99.90
66629;DHT22;53532;53.084;6.352;2022-09-02T01:12:33;13.30;99.90
66629;DHT22;53532;53.084;6.352;2022-09-02T01:15:01;13.20;99.90
66629;DHT22;53532;53.084;6.352;2022-09-02T01:17:28;13.20;99.90
66629;DHT22;53532;53.084;6.352;2022-09-02T01:19:58;13.20;99.90
66629;DHT22;53532;53.084;6.352;2022-09-02T01:22:28;13.20;99.90
66629;DHT22;53532;53.084;6.352;2022-09-02T01:24:56;13.10;99.90
66629;DHT22;53532;53.084;6.352;2022-09-02T01:27:22;13.10;99.90
66629;DHT22;53532;53.084;6.352;2022-09-02T01:29:51;13.10;99.90
66629;DHT22;53532;53.084;6.352;2022-09-02T01:32:17;13.10;99.90
66629;DHT22;53532;53.084;6.352;2022-09-02T01:34:43;13.10;99.90
66629;DHT22;53532;53.084;6.352;2022-09-02T01:37:08;13.10;99.90
66629;DHT22;53532;53.084;6.352;2022-09-02T01:39:36;13.00;99.90
66629;DHT22;53532;53.084;6.352;2022-09-02T01:42:02;13.00;99.90
66629;DHT22;53532;53.084;6.352;2022-09-02T01:44:28;13.00;99.90
66629;DHT22;53532;53.084;6.352;2022-09-02T01:46:54;13.00;99.90
66629;DHT22;53532;53.084;6.352;2022-09-02T01:49:21;13.00;99.90
66629;DHT22;53532;53.084;6.352;2022-09-02T01:51:48;12.90;99.90
66629;DHT22;53532;53.084;6.352;2022-09-02T01:54:14;12.90;99.90
66629;DHT22;53532;53.084;6.352;2022-09-02T01:56:41;12.90;99.90
66629;DHT22;53532;53.084;6.352;2022-09-02T01:59:07;12.90;99.90
66629;DHT22;53532;53.084;6.352;2022-09-02T02:01:33;12.90;99.90
66629;DHT22;53532;53.084;6.352;2022-09-02T02:03:59;12.90;99.90
66629;DHT22;53532;53.084;6.352;2022-09-02T02:06:26;12.90;99.90
66629;DHT22;53532;53.084;6.352;2022-09-02T02:08:52;12.90;99.90
66629;DHT22;53532;53.084;6.352;2022-09-02T02:11:19;12.90;99.90
66629;DHT22;53532;53.084;6.352;2022-09-02T02:13:47;12.90;99.90
66629;DHT22;53532;53.084;6.352;2022-09-02T02:16:13;12.90;99.90
66629;DHT22;53532;53.084;6.352;2022-09-02T02:18:39;12.90;99.90
66629;DHT22;53532;53.084;6.352;2022-09-02T02:21:05;12.90;99.90
66629;DHT22;53532;53.084;6.352;2022-09-02T02:23:30;12.90;99.90
66629;DHT22;53532;53.084;6.352;2022-09-02T02:25:56;12.90;99.90
66629;DHT22;53532;53.084;6.352;2022-09-02T02:28:22;12.80;99.90
66629;DHT22;53532;53.084;6.352;2022-09-02T02:30:49;12.80;99.90
66629;DHT22;53532;53.084;6.352;2022-09-02T02:33:15;12.80;99.90
66629;DHT22;53532;53.084;6.352;2022-09-02T02:35:41;12.80;99.90
66629;DHT22;53532;53.084;6.352;2022-09-02T02:38:07;12.70;99.90
66629;DHT22;53532;53.084;6.352;2022-09-02T02:40:34;12.70;99.90
66629;DHT22;53532;53.084;6.352;2022-09-02T02:43:00;12.70;99.90
66629;DHT22;53532;53.084;6.352;2022-09-02T02:45:26;12.70;99.90
66629;DHT22;53532;53.084;6.352;2022-09-02T02:47:53;12.70;99.90
66629;DHT22;53532;53.084;6.352;2022-09-02T02:50:21;12.70;99.90
66629;DHT22;53532;53.084;6.352;2022-09-02T02:52:48;12.70;99.90
66629;DHT22;53532;53.084;6.352;2022-09-02T02:55:15;12.70;99.90
66629;DHT22;53532;53.084;6.352;2022-09-02T02:57:42;12.70;99.90
66629;DHT22;53532;53.084;6.352;2022-09-02T03:00:11;12.70;99.90
66629;DHT22;53532;53.084;6.352;2022-09-02T03:02:37;12.80;99.90
66629;DHT22;53532;53.084;6.352;2022-09-02T03:05:06;12.70;99.90
66629;DHT22;53532;53.084;6.352;2022-09-02T03:07:32;12.80;99.90
66629;DHT22;53532;53.084;6.352;2022-09-02T03:09:58;12.80;99.90
66629;DHT22;53532;53.084;6.352;2022-09-02T03:12:24;12.70;99.90
66629;DHT22;53532;53.084;6.352;2022-09-02T03:14:50;12.80;99.90
66629;DHT22;53532;53.084;6.352;2022-09-02T03:17:16;12.80;99.90
66629;DHT22;53532;53.084;6.352;2022-09-02T03:19:42;12.70;99.90
66629;DHT22;53532;53.084;6.352;2022-09-02T03:22:09;12.70;99.90
66629;DHT22;53532;53.084;6.352;2022-09-02T03:24:36;12.70;99.90
66629;DHT22;53532;53.084;6.352;2022-09-02T03:27:02;12.70;99.90
66629;DHT22;53532;53.084;6.352;2022-09-02T03:29:28;12.60;99.90
66629;DHT22;53532;53.084;6.352;2022-09-02T03:31:54;12.60;99.90
66629;DHT22;53532;53.084;6.352;2022-09-02T03:34:20;12.60;99.90
66629;DHT22;53532;53.084;6.352;2022-09-02T03:36:46;12.50;99.90
66629;DHT22;53532;53.084;6.352;2022-09-02T03:39:13;12.50;99.90
66629;DHT22;53532;53.084;6.352;2022-09-02T03:41:40;12.50;99.90
66629;DHT22;53532;53.084;6.352;2022-09-02T03:44:06;12.50;99.90
66629;DHT22;53532;53.084;6.352;2022-09-02T03:46:33;12.40;99.90
66629;DHT22;53532;53.084;6.352;2022-09-02T03:49:00;12.40;99.90
66629;DHT22;53532;53.084;6.352;2022-09-02T03:51:26;12.40;99.90
66629;DHT22;53532;53.084;6.352;2022-09-02T03:53:53;12.40;99.90
66629;DHT22;53532;53.084;6.352;2022-09-02T03:56:20;12.30;99.90
66629;DHT22;53532;53.084;6.352;2022-09-02T03:58:48;12.30;99.90
66629;DHT22;53532;53.084;6.352;2022-09-02T04:01:16;12.30;99.90
66629;DHT22;53532;53.084;6.352;2022-09-02T04:03:42;12.20;99.90
66629;DHT22;53532;53.084;6.352;2022-09-02T04:06:08;12.20;99.90
66629;DHT22;53532;53.084;6.352;2022-09-02T04:08:36;12.20;99.90
66629;DHT22;53532;53.084;6.352;2022-09-02T04:11:05;12.20;99.90
66629;DHT22;53532;53.084;6.352;2022-09-02T04:13:32;12.10;99.90
66629;DHT22;53532;53.084;6.352;2022-09-02T04:15:58;12.10;99.90
66629;DHT22;53532;53.084;6.352;2022-09-02T04:18:24;12.10;99.90
66629;DHT22;53532;53.084;6.352;2022-09-02T04:20:50;12.00;99.90
66629;DHT22;53532;53.084;6.352;2022-09-02T04:23:15;12.00;99.90
66629;DHT22;53532;53.084;6.352;2022-09-02T04:25:42;12.00;99.90
66629;DHT22;53532;53.084;6.352;2022-09-02T04:28:09;11.90;99.90
66629;DHT22;53532;53.084;6.352;2022-09-02T04:30:38;11.90;99.90
66629;DHT22;53532;53.084;6.352;2022-09-02T04:33:04;11.90;99.90
66629;DHT22;53532;53.084;6.352;2022-09-02T04:35:30;11.80;99.90
66629;DHT22;53532;53.084;6.352;2022-09-02T04:37:56;11.80;99.90
66629;DHT22;53532;53.084;6.352;2022-09-02T04:40:23;11.80;99.90
66629;DHT22;53532;53.084;6.352;2022-09-02T04:42:49;11.80;99.90
66629;DHT22;53532;53.084;6.352;2022-09-02T04:45:15;11.70;99.90
66629;DHT22;53532;53.084;6.352;2022-09-02T04:47:42;11.70;99.90
66629;DHT22;53532;53.084;6.352;2022-09-02T04:50:08;11.70;99.90
66629;DHT22;53532;53.084;6.352;2022-09-02T04:52:35;11.70;99.90
66629;DHT22;53532;53.084;6.352;2022-09-02T04:55:01;11.70;99.90
66629;DHT22;53532;53.084;6.352;2022-09-02T04:57:27;11.70;99.90
66629;DHT22;53532;53.084;6.352;2022-09-02T04:59:53;11.70;99.90
66629;DHT22;53532;53.084;6.352;2022-09-02T05:02:18;11.70;99.90
66629;DHT22;53532;53.084;6.352;2022-09-02T05:04:46;11.70;99.90
66629;DHT22;53532;53.084;6.352;2022-09-02T05:07:12;11.70;99.90
66629;DHT22;53532;53.084;6.352;2022-09-02T05:09:38;11.70;99.90
66629;DHT22;53532;53.084;6.352;2022-09-02T05:12:04;11.70;99.90
66629;DHT22;53532;53.084;6.352;2022-09-02T05:14:30;11.70;99.90
66629;DHT22;53532;53.084;6.352;2022-09-02T05:16:57;11.80;99.90
66629;DHT22;53532;53.084;6.352;2022-09-02T05:19:25;11.80;99.90
66629;DHT22;53532;53.084;6.352;2022-09-02T05:21:52;11.80;99.90
66629;DHT22;53532;53.084;6.352;2022-09-02T05:24:20;11.90;99.90
66629;DHT22;53532;53.084;6.352;2022-09-02T05:26:46;11.90;99.90
66629;DHT22;53532;53.084;6.352;2022-09-02T05:29:12;11.90;99.90
66629;DHT22;53532;53.084;6.352;2022-09-02T05:31:38;12.00;99.90
66629;DHT22;53532;53.084;6.352;2022-09-02T05:34:06;12.00;99.90
66629;DHT22;53532;53.084;6.352;2022-09-02T05:36:32;12.10;99.90
66629;DHT22;53532;53.084;6.352;2022-09-02T05:39:00;12.10;99.90
66629;DHT22;53532;53.084;6.352;2022-09-02T05:41:26;12.20;99.90
66629;DHT22;53532;53.084;6.352;2022-09-02T05:43:55;12.20;99.90
66629;DHT22;53532;53.084;6.352;2022-09-02T05:46:23;12.20;99.90
66629;DHT22;53532;53.084;6.352;2022-09-02T05:48:50;12.30;99.90
66629;DHT22;53532;53.084;6.352;2022-09-02T05:51:33;12.30;99.90
66629;DHT22;53532;53.084;6.352;2022-09-02T05:54:03;12.40;99.90
66629;DHT22;53532;53.084;6.352;2022-09-02T05:56:29;12.40;99.90
66629;DHT22;53532;53.084;6.352;2022-09-02T05:58:56;12.50;99.90
66629;DHT22;53532;53.084;6.352;2022-09-02T06:01:23;12.50;99.90
66629;DHT22;53532;53.084;6.352;2022-09-02T06:03:49;12.60;99.90
66629;DHT22;53532;53.084;6.352;2022-09-02T06:06:17;12.60;99.90
66629;DHT22;53532;53.084;6.352;2022-09-02T06:08:43;12.70;99.90
66629;DHT22;53532;53.084;6.352;2022-09-02T06:11:11;12.80;99.90
66629;DHT22;53532;53.084;6.352;2022-09-02T06:13:39;12.90;99.90
66629;DHT22;53532;53.084;6.352;2022-09-02T06:16:05;12.90;99.90
66629;DHT22;53532;53.084;6.352;2022-09-02T06:18:33;13.00;99.90
66629;DHT22;53532;53.084;6.352;2022-09-02T06:20:59;13.10;99.90
66629;DHT22;53532;53.084;6.352;2022-09-02T06:23:26;13.20;99.90
66629;DHT22;53532;53.084;6.352;2022-09-02T06:25:52;13.20;99.90
66629;DHT22;53532;53.084;6.352;2022-09-02T06:28:19;13.30;99.90
66629;DHT22;53532;53.084;6.352;2022-09-02T06:30:45;13.40;99.90
66629;DHT22;53532;53.084;6.352;2022-09-02T06:33:14;13.40;99.90
66629;DHT22;53532;53.084;6.352;2022-09-02T06:35:42;13.50;99.90
66629;DHT22;53532;53.084;6.352;2022-09-02T06:38:09;13.60;99.90
66629;DHT22;53532;53.084;6.352;2022-09-02T06:40:35;13.70;99.90
66629;DHT22;53532;53.084;6.352;2022-09-02T06:43:02;13.80;99.90
66629;DHT22;53532;53.084;6.352;2022-09-02T06:45:29;13.90;99.90
66629;DHT22;53532;53.084;6.352;2022-09-02T06:47:56;14.00;99.90
66629;DHT22;53532;53.084;6.352;2022-09-02T06:50:21;14.00;99.90
66629;DHT22;53532;53.084;6.352;2022-09-02T06:52:47;14.20;99.90
66629;DHT22;53532;53.084;6.352;2022-09-02T06:55:13;14.40;99.90
66629;DHT22;53532;53.084;6.352;2022-09-02T06:57:40;14.40;99.90
66629;DHT22;53532;53.084;6.352;2022-09-02T07:00:08;14.60;99.90
66629;DHT22;53532;53.084;6.352;2022-09-02T07:02:36;14.70;99.90
66629;DHT22;53532;53.084;6.352;2022-09-02T07:05:02;14.90;99.90
66629;DHT22;53532;53.084;6.352;2022-09-02T07:07:34;15.00;99.90
66629;DHT22;53532;53.084;6.352;2022-09-02T07:10:01;15.10;99.90
66629;DHT22;53532;53.084;6.352;2022-09-02T07:12:27;15.20;99.90
66629;DHT22;53532;53.084;6.352;2022-09-02T07:14:53;15.40;99.90
66629;DHT22;53532;53.084;6.352;2022-09-02T07:17:19;15.40;99.90
66629;DHT22;53532;53.084;6.352;2022-09-02T07:19:48;15.60;99.90
66629;DHT22;53532;53.084;6.352;2022-09-02T07:22:14;15.60;99.90
66629;DHT22;53532;53.084;6.352;2022-09-02T07:27:07;15.90;99.90
66629;DHT22;53532;53.084;6.352;2022-09-02T07:29:33;15.90;99.90
66629;DHT22;53532;53.084;6.352;2022-09-02T07:31:59;16.00;99.90
66629;DHT22;53532;53.084;6.352;2022-09-02T07:34:26;16.10;99.90
66629;DHT22;53532;53.084;6.352;2022-09-02T07:36:53;16.20;99.90
66629;DHT22;53532;53.084;6.352;2022-09-02T07:39:19;16.30;99.90
66629;DHT22;53532;53.084;6.352;2022-09-02T07:41:48;16.40;99.90
66629;DHT22;53532;53.084;6.352;2022-09-02T07:44:15;16.50;99.90
66629;DHT22;53532;53.084;6.352;2022-09-02T07:46:42;16.60;99.90
66629;DHT22;53532;53.084;6.352;2022-09-02T07:49:09;16.80;99.90
66629;DHT22;53532;53.084;6.352;2022-09-02T07:51:38;16.90;99.90
66629;DHT22;53532;53.084;6.352;2022-09-02T07:54:07;17.10;99.90
66629;DHT22;53532;53.084;6.352;2022-09-02T07:56:33;17.30;99.90
66629;DHT22;53532;53.084;6.352;2022-09-02T07:58:59;17.50;99.90
66629;DHT22;53532;53.084;6.352;2022-09-02T08:01:25;17.70;99.90
66629;DHT22;53532;53.084;6.352;2022-09-02T08:03:52;17.90;99.90
66629;DHT22;53532;53.084;6.352;2022-09-02T08:06:18;18.10;99.90
66629;DHT22;53532;53.084;6.352;2022-09-02T08:08:45;18.40;99.90
66629;DHT22;53532;53.084;6.352;2022-09-02T08:11:13;18.60;99.90
66629;DHT22;53532;53.084;6.352;2022-09-02T08:13:38;18.80;99.90
66629;DHT22;53532;53.084;6.352;2022-09-02T08:16:05;19.10;97.10
66629;DHT22;53532;53.084;6.352;2022-09-02T08:18:32;19.30;96.00
66629;DHT22;53532;53.084;6.352;2022-09-02T08:20:58;19.50;93.70
66629;DHT22;53532;53.084;6.352;2022-09-02T08:23:24;19.70;91.40
66629;DHT22;53532;53.084;6.352;2022-09-02T08:25:49;19.90;89.70
66629;DHT22;53532;53.084;6.352;2022-09-02T08:28:17;20.10;86.30
66629;DHT22;53532;53.084;6.352;2022-09-02T08:30:43;20.30;82.20
66629;DHT22;53532;53.084;6.352;2022-09-02T08:33:08;20.60;79.70
66629;DHT22;53532;53.084;6.352;2022-09-02T08:35:34;20.80;77.50
66629;DHT22;53532;53.084;6.352;2022-09-02T08:38:00;20.90;74.80
66629;DHT22;53532;53.084;6.352;2022-09-02T08:40:33;21.00;74.20
66629;DHT22;53532;53.084;6.352;2022-09-02T08:43:00;21.20;72.20
66629;DHT22;53532;53.084;6.352;2022-09-02T08:45:31;21.20;72.40
66629;DHT22;53532;53.084;6.352;2022-09-02T08:48:01;21.30;71.30
66629;DHT22;53532;53.084;6.352;2022-09-02T08:50:29;21.40;73.30
66629;DHT22;53532;53.084;6.352;2022-09-02T08:53:01;21.50;70.90
66629;DHT22;53532;53.084;6.352;2022-09-02T08:55:32;21.60;68.50
66629;DHT22;53532;53.084;6.352;2022-09-02T08:57:59;21.80;67.60
66629;DHT22;53532;53.084;6.352;2022-09-02T09:00:28;21.90;64.90
66629;DHT22;53532;53.084;6.352;2022-09-02T09:03:01;22.10;67.00
66629;DHT22;53532;53.084;6.352;2022-09-02T09:05:36;22.30;65.10
66629;DHT22;53532;53.084;6.352;2022-09-02T09:08:13;22.30;64.00
66629;DHT22;53532;53.084;6.352;2022-09-02T09:10:48;22.40;63.20
66629;DHT22;53532;53.084;6.352;2022-09-02T09:13:46;22.30;63.20
66629;DHT22;53532;53.084;6.352;2022-09-02T09:16:24;22.60;62.30
66629;DHT22;53532;53.084;6.352;2022-09-02T09:18:56;22.80;62.10
66629;DHT22;53532;53.084;6.352;2022-09-02T09:21:24;23.00;61.10
66629;DHT22;53532;53.084;6.352;2022-09-02T09:23:51;23.20;59.80
66629;DHT22;53532;53.084;6.352;2022-09-02T09:26:23;23.30;59.10
66629;DHT22;53532;53.084;6.352;2022-09-02T09:28:52;23.40;58.10
66629;DHT22;53532;53.084;6.352;2022-09-02T09:31:21;23.40;57.40
66629;DHT22;53532;53.084;6.352;2022-09-02T09:33:55;23.30;56.80
66629;DHT22;53532;53.084;6.352;2022-09-02T09:36:42;23.40;56.70
66629;DHT22;53532;53.084;6.352;2022-09-02T09:39:17;23.50;55.60
66629;DHT22;53532;53.084;6.352;2022-09-02T09:41:43;23.50;56.00
66629;DHT22;53532;53.084;6.352;2022-09-02T09:44:10;23.60;55.90
66629;DHT22;53532;53.084;6.352;2022-09-02T09:46:37;23.70;55.80
66629;DHT22;53532;53.084;6.352;2022-09-02T09:49:04;23.70;55.50
66629;DHT22;53532;53.084;6.352;2022-09-02T09:51:30;23.80;55.30
66629;DHT22;53532;53.084;6.352;2022-09-02T09:54:13;23.80;54.40
66629;DHT22;53532;53.084;6.352;2022-09-02T09:56:40;23.90;54.30
66629;DHT22;53532;53.084;6.352;2022-09-02T09:59:33;23.90;54.00
66629;DHT22;53532;53.084;6.352;2022-09-02T10:02:01;24.20;53.80
66629;DHT22;53532;53.084;6.352;2022-09-02T10:04:29;24.20;53.70
66629;DHT22;53532;53.084;6.352;2022-09-02T10:06:56;24.30;52.90
66629;DHT22;53532;53.084;6.352;2022-09-02T10:09:33;24.30;52.70
66629;DHT22;53532;53.084;6.352;2022-09-02T10:12:01;24.30;50.70
66629;DHT22;53532;53.084;6.352;2022-09-02T10:14:33;24.40;51.60
66629;DHT22;53532;53.084;6.352;2022-09-02T10:19:54;24.60;50.40
66629;DHT22;53532;53.084;6.352;2022-09-02T10:22:50;24.70;50.40
66629;DHT22;53532;53.084;6.352;2022-09-02T10:25:24;24.80;49.00
66629;DHT22;53532;53.084;6.352;2022-09-02T10:27:58;24.80;49.30
66629;DHT22;53532;53.084;6.352;2022-09-02T10:30:31;24.90;48.90
66629;DHT22;53532;53.084;6.352;2022-09-02T10:33:19;24.90;48.90
66629;DHT22;53532;53.084;6.352;2022-09-02T10:35:48;24.90;48.90
66629;DHT22;53532;53.084;6.352;2022-09-02T10:38:32;25.00;48.90
66629;DHT22;53532;53.084;6.352;2022-09-02T10:41:06;25.10;47.80
66629;DHT22;53532;53.084;6.352;2022-09-02T10:43:57;25.10;48.40
66629;DHT22;53532;53.084;6.352;2022-09-02T10:46:24;25.20;47.80
66629;DHT22;53532;53.084;6.352;2022-09-02T10:48:58;25.20;47.70
66629;DHT22;53532;53.084;6.352;2022-09-02T10:51:35;25.20;47.10
66629;DHT22;53532;53.084;6.352;2022-09-02T10:54:18;25.30;47.10
66629;DHT22;53532;53.084;6.352;2022-09-02T10:56:52;25.40;47.40
66629;DHT22;53532;53.084;6.352;2022-09-02T10:59:21;25.50;47.20
66629;DHT22;53532;53.084;6.352;2022-09-02T11:01:53;25.60;46.80
66629;DHT22;53532;53.084;6.352;2022-09-02T11:04:28;25.60;45.90
66629;DHT22;53532;53.084;6.352;2022-09-02T11:06:56;25.60;45.30
66629;DHT22;53532;53.084;6.352;2022-09-02T11:09:28;25.80;45.30
66629;DHT22;53532;53.084;6.352;2022-09-02T11:12:01;25.90;44.80
66629;DHT22;53532;53.084;6.352;2022-09-02T11:14:32;25.90;44.60
66629;DHT22;53532;53.084;6.352;2022-09-02T11:17:04;25.90;44.00
66629;DHT22;53532;53.084;6.352;2022-09-02T11:19:39;26.00;44.20
66629;DHT22;53532;53.084;6.352;2022-09-02T11:22:13;26.10;44.10
66629;DHT22;53532;53.084;6.352;2022-09-02T11:24:46;26.10;43.80
66629;DHT22;53532;53.084;6.352;2022-09-02T11:27:19;26.10;43.80
66629;DHT22;53532;53.084;6.352;2022-09-02T11:29:55;26.00;43.70
66629;DHT22;53532;53.084;6.352;2022-09-02T11:32:28;26.20;43.70
66629;DHT22;53532;53.084;6.352;2022-09-02T11:35:00;26.20;43.00
66629;DHT22;53532;53.084;6.352;2022-09-02T11:37:30;26.10;42.80
66629;DHT22;53532;53.084;6.352;2022-09-02T11:40:01;26.20;42.90
66629;DHT22;53532;53.084;6.352;2022-09-02T11:42:38;26.30;43.00
66629;DHT22;53532;53.084;6.352;2022-09-02T11:45:20;26.40;42.40
66629;DHT22;53532;53.084;6.352;2022-09-02T11:48:19;26.50;42.60
66629;DHT22;53532;53.084;6.352;2022-09-02T11:51:11;26.60;41.80
66629;DHT22;53532;53.084;6.352;2022-09-02T11:53:43;26.60;41.80
66629;DHT22;53532;53.084;6.352;2022-09-02T11:56:13;26.60;41.90
66629;DHT22;53532;53.084;6.352;2022-09-02T11:58:43;26.60;41.40
66629;DHT22;53532;53.084;6.352;2022-09-02T12:01:24;26.60;41.00
66629;DHT22;53532;53.084;6.352;2022-09-02T12:03:57;26.50;41.00
66629;DHT22;53532;53.084;6.352;2022-09-02T12:06:25;26.50;41.20
66629;DHT22;53532;53.084;6.352;2022-09-02T12:08:59;26.50;41.30
66629;DHT22;53532;53.084;6.352;2022-09-02T12:11:48;26.50;41.30
66629;DHT22;53532;53.084;6.352;2022-09-02T12:24:07;26.70;39.70
66629;DHT22;53532;53.084;6.352;2022-09-02T12:27:06;26.80;40.60
66629;DHT22;53532;53.084;6.352;2022-09-02T12:29:35;26.90;40.50
66629;DHT22;53532;53.084;6.352;2022-09-02T12:32:01;27.00;40.20
66629;DHT22;53532;53.084;6.352;2022-09-02T12:34:55;27.10;39.80
66629;DHT22;53532;53.084;6.352;2022-09-02T12:40:36;26.90;40.10
66629;DHT22;53532;53.084;6.352;2022-09-02T12:43:05;26.90;40.20
66629;DHT22;53532;53.084;6.352;2022-09-02T12:45:41;27.00;40.00
66629;DHT22;53532;53.084;6.352;2022-09-02T12:48:11;27.00;39.90
66629;DHT22;53532;53.084;6.352;2022-09-02T12:50:52;27.00;39.70
66629;DHT22;53532;53.084;6.352;2022-09-02T12:53:31;27.10;39.60
66629;DHT22;53532;53.084;6.352;2022-09-02T12:56:00;27.10;39.70
66629;DHT22;53532;53.084;6.352;2022-09-02T12:58:32;27.10;39.70
66629;DHT22;53532;53.084;6.352;2022-09-02T13:01:05;27.00;39.30
66629;DHT22;53532;53.084;6.352;2022-09-02T13:03:50;26.90;39.20
66629;DHT22;53532;53.084;6.352;2022-09-02T13:06:26;26.90;39.20
66629;DHT22;53532;53.084;6.352;2022-09-02T13:12:25;27.00;40.10
66629;DHT22;53532;53.084;6.352;2022-09-02T13:15:04;27.00;40.10
66629;DHT22;53532;53.084;6.352;2022-09-02T13:17:47;27.00;39.10
66629;DHT22;53532;53.084;6.352;2022-09-02T13:26:48;27.00;39.30
66629;DHT22;53532;53.084;6.352;2022-09-02T13:29:51;27.00;39.30
66629;DHT22;53532;53.084;6.352;2022-09-02T13:32:26;27.00;39.90
66629;DHT22;53532;53.084;6.352;2022-09-02T13:34:56;27.00;39.50
66629;DHT22;53532;53.084;6.352;2022-09-02T13:37:32;26.90;39.20
66629;DHT22;53532;53.084;6.352;2022-09-02T13:39:58;26.90;39.50
66629;DHT22;53532;53.084;6.352;2022-09-02T13:42:26;26.80;39.70
66629;DHT22;53532;53.084;6.352;2022-09-02T13:47:52;26.90;39.40
66629;DHT22;53532;53.084;6.352;2022-09-02T13:50:21;27.10;39.50
66629;DHT22;53532;53.084;6.352;2022-09-02T13:52:50;27.20;39.90
66629;DHT22;53532;53.084;6.352;2022-09-02T13:55:17;27.20;38.70
66629;DHT22;53532;53.084;6.352;2022-09-02T13:57:46;27.30;38.80
66629;DHT22;53532;53.084;6.352;2022-09-02T14:00:15;27.30;38.50
66629;DHT22;53532;53.084;6.352;2022-09-02T14:02:57;27.30;38.40
66629;DHT22;53532;53.084;6.352;2022-09-02T14:05:23;27.20;37.90
66629;DHT22;53532;53.084;6.352;2022-09-02T14:07:52;27.10;38.40
66629;DHT22;53532;53.084;6.352;2022-09-02T14:10:22;27.10;38.60
66629;DHT22;53532;53.084;6.352;2022-09-02T14:12:49;27.00;38.20
66629;DHT22;53532;53.084;6.352;2022-09-02T14:15:22;26.90;39.20
66629;DHT22;53532;53.084;6.352;2022-09-02T14:18:07;26.50;38.70
66629;DHT22;53532;53.084;6.352;2022-09-02T14:20:34;26.30;39.10
66629;DHT22;53532;53.084;6.352;2022-09-02T14:23:01;26.20;39.40
66629;DHT22;53532;53.084;6.352;2022-09-02T14:25:30;26.40;39.40
66629;DHT22;53532;53.084;6.352;2022-09-02T14:27:58;26.60;38.90
66629;DHT22;53532;53.084;6.352;2022-09-02T14:30:31;26.70;39.20
66629;DHT22;53532;53.084;6.352;2022-09-02T14:33:24;26.80;38.70
66629;DHT22;53532;53.084;6.352;2022-09-02T14:35:58;26.80;38.90
66629;DHT22;53532;53.084;6.352;2022-09-02T14:38:26;26.70;38.50
66629;DHT22;53532;53.084;6.352;2022-09-02T14:40:59;26.40;38.70
66629;DHT22;53532;53.084;6.352;2022-09-02T14:43:25;26.10;39.20
66629;DHT22;53532;53.084;6.352;2022-09-02T14:46:03;26.00;39.70
66629;DHT22;53532;53.084;6.352;2022-09-02T14:48:36;26.00;39.70
66629;DHT22;53532;53.084;6.352;2022-09-02T14:51:04;26.00;39.20
66629;DHT22;53532;53.084;6.352;2022-09-02T14:53:31;26.10;39.50
66629;DHT22;53532;53.084;6.352;2022-09-02T14:55:57;26.10;39.50
66629;DHT22;53532;53.084;6.352;2022-09-02T14:58:25;26.10;39.30
66629;DHT22;53532;53.084;6.352;2022-09-02T15:00:53;26.10;39.40
66629;DHT22;53532;53.084;6.352;2022-09-02T15:03:20;26.10;39.30
66629;DHT22;53532;53.084;6.352;2022-09-02T15:05:48;26.10;39.50
66629;DHT22;53532;53.084;6.352;2022-09-02T15:08:14;26.00;39.60
66629;DHT22;53532;53.084;6.352;2022-09-02T15:10:41;26.00;39.60
66629;DHT22;53532;53.084;6.352;2022-09-02T15:13:11;25.90;40.30
66629;DHT22;53532;53.084;6.352;2022-09-02T15:15:37;25.80;39.60
66629;DHT22;53532;53.084;6.352;2022-09-02T15:18:03;25.70;39.70
66629;DHT22;53532;53.084;6.352;2022-09-02T15:20:30;25.60;40.00
66629;DHT22;53532;53.084;6.352;2022-09-02T15:22:57;25.50;40.00
66629;DHT22;53532;53.084;6.352;2022-09-02T15:25:23;25.40;40.00
66629;DHT22;53532;53.084;6.352;2022-09-02T15:27:49;25.30;40.20
66629;DHT22;53532;53.084;6.352;2022-09-02T15:30:14;25.30;40.40
66629;DHT22;53532;53.084;6.352;2022-09-02T15:32:41;25.30;40.50
66629;DHT22;53532;53.084;6.352;2022-09-02T15:35:08;25.20;41.20
66629;DHT22;53532;53.084;6.352;2022-09-02T15:37:34;25.10;40.60
66629;DHT22;53532;53.084;6.352;2022-09-02T15:40:04;25.20;40.50
66629;DHT22;53532;53.084;6.352;2022-09-02T15:42:33;25.20;40.50
66629;DHT22;53532;53.084;6.352;2022-09-02T15:45:00;25.10;40.20
66629;DHT22;53532;53.084;6.352;2022-09-02T15:47:27;25.10;40.30
66629;DHT22;53532;53.084;6.352;2022-09-02T15:49:55;25.00;40.30
66629;DHT22;53532;53.084;6.352;2022-09-02T15:52:22;25.00;40.30
66629;DHT22;53532;53.084;6.352;2022-09-02T15:54:48;25.00;40.50
66629;DHT22;53532;53.084;6.352;2022-09-02T15:57:15;24.90;40.20
66629;DHT22;53532;53.084;6.352;2022-09-02T15:59:41;24.90;40.10
66629;DHT22;53532;53.084;6.352;2022-09-02T16:02:06;24.80;40.40
66629;DHT22;53532;53.084;6.352;2022-09-02T16:04:32;24.90;40.60
66629;DHT22;53532;53.084;6.352;2022-09-02T16:06:58;24.90;40.70
66629;DHT22;53532;53.084;6.352;2022-09-02T16:09:25;24.80;40.90
66629;DHT22;53532;53.084;6.352;2022-09-02T16:11:52;24.80;40.90
66629;DHT22;53532;53.084;6.352;2022-09-02T16:14:23;24.80;40.60